Time;durP1;ratioP1;P1;durP2;ratioP2;P2;SDS_P1;SDS_P2;PMS_P1;PMS_P2;Temp;Humidity;BMP_temperature;BMP_pressure;BME280_temperature;BME280_humidity;BME280_pressure;Samples;Min_cycle;Max_cycle;Signal;HPM_P1;HPM_P2
2023/03/11 00:02:27;;;;;;;;;;;;;;;24.18;47.86;95008.55;590307;240;48089;-59
2023/03/11 00:04:55;;;;;;;;;;;;;;;24.19;51.86;94982.49;590273;240;66740;-60
2023/03/11 00:07:22;;;;;;;;;;;;;;;24.18;47.92;94983.63;590335;240;64894;-59
2023/03/11 00:09:50;;;;;;;;;;;;;;;24.19;49.66;94987.86;590248;240;67122;-60
2023/03/11 00:12:21;;;;;;;;;;;;;;;24.17;48.63;94974.77;590112;240;46829;-60
2023/03/11 00:14:53;;;;;;;;;;;;;;;24.18;50.24;94964.84;590290;240;67472;-59
2023/03/11 00:17:20;;;;;;;;;;;;;;;24.17;48.96;94972.08;590285;240;66793;-60
2023/03/11 00:19:49;;;;;;;;;;;;;;;24.18;50.38;94967.52;590323;240;66966;-60
2023/03/11 00:22:17;;;;;;;;;;;;;;;24.15;49.27;94969.75;585140;240;62935;-60
2023/03/11 00:24:44;;;;;;;;;;;;;;;24.15;49.39;94988.54;585111;240;66830;-60
2023/03/11 00:27:13;;;;;;;;;;;;;;;24.14;51.51;94976.25;590289;240;64908;-60
2023/03/11 00:29:40;;;;;;;;;;;;;;;24.16;51.93;94981.27;590017;240;65035;-60
2023/03/11 00:32:10;;;;;;;;;;;;;;;24.13;50.21;94977.36;590296;240;64793;-67
2023/03/11 00:34:39;;;;;;;;;;;;;;;24.14;49.23;94976.25;588007;240;64882;-67
2023/03/11 00:37:08;;;;;;;;;;;;;;;24.13;49.41;94971.98;586043;242;42097;-67
2023/03/11 00:39:36;;;;;;;;;;;;;;;24.13;50.53;94973.90;586070;242;67807;-67
2023/03/11 00:42:04;;;;;;;;;;;;;;;24.12;50.87;94951.66;586041;242;67030;-60
2023/03/11 00:44:32;;;;;;;;;;;;;;;24.12;48.53;94948.97;586061;242;62533;-60
2023/03/11 00:47:01;;;;;;;;;;;;;;;24.12;49.14;94959.70;586064;242;67779;-60
2023/03/11 00:49:28;;;;;;;;;;;;;;;24.12;49.19;94948.20;586032;242;67087;-60
2023/03/11 00:51:56;;;;;;;;;;;;;;;24.12;49.72;94956.25;586062;242;63050;-60
2023/03/11 00:54:24;;;;;;;;;;;;;;;24.11;50.36;94949.30;585941;242;67352;-60
2023/03/11 00:56:54;;;;;;;;;;;;;;;24.10;50.62;94939.70;586099;242;46946;-60
2023/03/11 00:59:27;;;;;;;;;;;;;;;24.11;50.80;94951.98;586111;242;44379;-60
2023/03/11 01:01:58;;;;;;;;;;;;;;;24.11;51.00;94938.56;585944;242;65807;-60
2023/03/11 01:04:28;;;;;;;;;;;;;;;24.09;50.50;94941.61;586079;242;66741;-67
2023/03/11 01:06:58;;;;;;;;;;;;;;;24.08;47.86;94940.02;586067;242;63561;-67
2023/03/11 01:09:27;;;;;;;;;;;;;;;24.10;51.08;94934.33;585969;242;65125;-67
2023/03/11 01:11:55;;;;;;;;;;;;;;;24.07;50.42;94930.42;581321;242;68937;-68
2023/03/11 01:14:22;;;;;;;;;;;;;;;24.09;49.92;94936.23;586073;242;65084;-68
2023/03/11 01:16:52;;;;;;;;;;;;;;;24.08;51.83;94907.83;581381;242;67376;-67
2023/03/11 01:19:22;;;;;;;;;;;;;;;24.08;49.38;94907.83;586074;242;67173;-67
2023/03/11 01:21:53;;;;;;;;;;;;;;;24.08;51.56;94899.00;586059;242;65110;-67
2023/03/11 01:24:20;;;;;;;;;;;;;;;24.07;48.76;94900.91;586035;242;67300;-67
2023/03/11 01:26:48;;;;;;;;;;;;;;;24.09;51.07;94897.87;581370;242;68285;-67
2023/03/11 01:29:22;;;;;;;;;;;;;;;24.07;51.23;94897.45;581759;242;64929;-67
2023/03/11 01:31:54;;;;;;;;;;;;;;;24.06;52.20;94898.55;586034;242;66846;-67
2023/03/11 01:34:22;;;;;;;;;;;;;;;24.05;51.57;94900.46;586022;240;67016;-67
2023/03/11 01:36:54;;;;;;;;;;;;;;;24.04;50.86;94890.86;586069;242;45001;-67
2023/03/11 01:39:21;;;;;;;;;;;;;;;24.05;54.16;94895.09;586022;242;65395;-67
2023/03/11 01:41:51;;;;;;;;;;;;;;;24.04;50.58;94884.72;586085;242;67512;-67
2023/03/11 01:44:20;;;;;;;;;;;;;;;24.04;51.65;94887.41;586037;242;65038;-67
2023/03/11 01:46:57;;;;;;;;;;;;;;;24.02;48.59;94887.73;586045;241;43464;-66
2023/03/11 01:49:25;;;;;;;;;;;;;;;24.03;49.51;94902.70;585998;242;45719;-67
2023/03/11 01:52:06;;;;;;;;;;;;;;;24.02;50.04;94889.64;586002;242;65029;-67
2023/03/11 01:54:34;;;;;;;;;;;;;;;24.01;52.28;94891.55;586064;242;66670;-67
2023/03/11 01:57:04;;;;;;;;;;;;;;;24.01;51.45;94896.11;586105;242;67557;-66
2023/03/11 01:59:35;;;;;;;;;;;;;;;24.01;51.92;94894.23;585928;242;43532;-67
2023/03/11 02:02:04;;;;;;;;;;;;;;;24.00;51.30;94892.66;585953;242;67418;-67
2023/03/11 02:04:37;;;;;;;;;;;;;;;24.00;51.84;94889.97;585401;242;67010;-67
2023/03/11 02:07:06;;;;;;;;;;;;;;;23.99;50.80;94880.38;586052;242;62536;-67
2023/03/11 02:09:34;;;;;;;;;;;;;;;24.01;52.34;94863.91;586116;242;67309;-67
2023/03/11 02:12:02;;;;;;;;;;;;;;;23.99;51.77;94869.64;586081;242;64957;-67
2023/03/11 02:14:31;;;;;;;;;;;;;;;23.99;52.40;94874.23;586032;242;65096;-67
2023/03/11 02:17:05;;;;;;;;;;;;;;;23.98;51.35;94884.19;585910;241;65329;-67
2023/03/11 02:19:41;;;;;;;;;;;;;;;23.99;51.47;94879.59;586099;242;47820;-60
2023/03/11 02:22:12;;;;;;;;;;;;;;;23.99;52.97;94890.33;586047;242;64993;-60
2023/03/11 02:25:01;;;;;;;;;;;;;;;23.97;53.32;94893.34;586120;242;46957;-60
2023/03/11 02:27:31;;;;;;;;;;;;;;;23.97;52.89;94885.29;586084;242;67306;-59
2023/03/11 02:30:05;;;;;;;;;;;;;;;23.96;50.72;94891.79;586034;242;65123;-66
2023/03/11 02:32:35;;;;;;;;;;;;;;;23.96;51.94;94893.70;586101;242;47314;-67
2023/03/11 02:35:03;;;;;;;;;;;;;;;23.95;52.92;94903.63;586014;240;67350;-67
2023/03/11 02:37:31;;;;;;;;;;;;;;;23.95;52.78;94897.48;586016;242;62468;-60
2023/03/11 02:40:20;;;;;;;;;;;;;;;23.94;52.72;94899.39;581648;242;47028;-60
2023/03/11 02:42:49;;;;;;;;;;;;;;;23.92;50.22;94890.89;586057;242;67417;-59
2023/03/11 02:45:22;;;;;;;;;;;;;;;23.94;51.95;94902.07;586060;242;62499;-60
2023/03/11 02:47:58;;;;;;;;;;;;;;;23.93;53.58;94892.47;586015;242;66842;-60
2023/03/11 02:50:27;;;;;;;;;;;;;;;23.92;51.65;94896.26;586033;242;67259;-59
2023/03/11 02:52:58;;;;;;;;;;;;;;;23.92;52.34;94888.20;586061;242;45122;-60
2023/03/11 02:55:30;;;;;;;;;;;;;;;23.92;52.61;94891.67;585897;242;48740;-60
2023/03/11 02:58:00;;;;;;;;;;;;;;;23.92;51.57;94898.94;585101;242;67734;-60
2023/03/11 03:00:29;;;;;;;;;;;;;;;23.91;52.08;94902.75;586013;242;64978;-60
2023/03/11 03:02:58;;;;;;;;;;;;;;;23.89;50.66;94900.41;586006;242;47996;-60
2023/03/11 03:05:26;;;;;;;;;;;;;;;23.90;52.49;94901.20;586029;242;67535;-60
2023/03/11 03:07:54;;;;;;;;;;;;;;;23.90;52.42;94898.52;586030;242;66043;-60
2023/03/11 03:10:23;;;;;;;;;;;;;;;23.89;53.28;94881.63;586094;242;67127;-60
2023/03/11 03:12:51;;;;;;;;;;;;;;;23.88;51.04;94888.13;586022;242;67080;-60
2023/03/11 03:15:18;;;;;;;;;;;;;;;23.89;52.87;94886.22;586057;242;63054;-60
2023/03/11 03:17:46;;;;;;;;;;;;;;;23.90;55.39;94877.06;586008;242;67842;-67
2023/03/11 03:20:14;;;;;;;;;;;;;;;23.88;52.29;94879.30;586018;242;64664;-60
2023/03/11 03:22:43;;;;;;;;;;;;;;;23.86;52.85;94874.26;586033;242;44019;-60
2023/03/11 03:25:12;;;;;;;;;;;;;;;23.87;52.13;94885.77;586075;242;67926;-60
2023/03/11 03:27:40;;;;;;;;;;;;;;;23.86;51.52;94889.58;585998;242;67421;-60
2023/03/11 03:30:08;;;;;;;;;;;;;;;23.86;51.15;94889.58;586045;242;65037;-60
2023/03/11 03:32:36;;;;;;;;;;;;;;;23.86;51.45;94890.36;586018;242;67269;-60
2023/03/11 03:35:05;;;;;;;;;;;;;;;23.86;53.44;94886.90;589070;240;65594;-60
2023/03/11 03:37:50;;;;;;;;;;;;;;;23.85;50.46;94896.08;590422;240;40181;-59
2023/03/11 03:40:18;;;;;;;;;;;;;;;23.85;51.12;94896.85;590239;240;67888;-59
2023/03/11 03:42:46;;;;;;;;;;;;;;;23.84;53.36;94892.59;590250;240;67315;-59
2023/03/11 03:45:14;;;;;;;;;;;;;;;23.84;51.75;94897.18;590236;240;62524;-59
2023/03/11 03:47:41;;;;;;;;;;;;;;;23.83;51.84;94895.63;590251;240;64911;-59
2023/03/11 03:50:10;;;;;;;;;;;;;;;23.83;52.64;94899.09;590318;240;67259;-59
2023/03/11 03:52:39;;;;;;;;;;;;;;;23.82;52.52;94910.95;590282;240;66081;-59
2023/03/11 03:55:07;;;;;;;;;;;;;;;23.82;51.39;94913.62;590279;240;68086;-59
2023/03/11 03:57:34;;;;;;;;;;;;;;;23.82;53.26;94918.22;590325;240;66889;-59
2023/03/11 04:00:03;;;;;;;;;;;;;;;23.82;52.46;94923.58;590348;240;62824;-59
2023/03/11 04:02:32;;;;;;;;;;;;;;;23.80;51.32;94918.55;590031;240;48041;-59
2023/03/11 04:05:00;;;;;;;;;;;;;;;23.81;52.61;94927.36;590333;240;66736;-59
2023/03/11 04:07:28;;;;;;;;;;;;;;;23.82;54.52;94931.63;590268;240;65641;-59
2023/03/11 04:09:56;;;;;;;;;;;;;;;23.80;54.14;94931.95;590302;240;67772;-66
2023/03/11 04:12:24;;;;;;;;;;;;;;;23.79;53.31;94933.09;590326;240;67453;-66
2023/03/11 04:14:51;;;;;;;;;;;;;;;23.80;51.62;94936.55;590326;240;63754;-67
2023/03/11 04:17:19;;;;;;;;;;;;;;;23.79;52.42;94932.28;590347;240;67701;-66
2023/03/11 04:19:48;;;;;;;;;;;;;;;23.79;52.67;94943.01;590299;240;65500;-67
2023/03/11 04:22:16;;;;;;;;;;;;;;;23.80;54.10;94948.05;590288;240;65144;-67
2023/03/11 04:24:43;;;;;;;;;;;;;;;23.79;53.54;94938.45;590277;240;67246;-67
2023/03/11 04:27:11;;;;;;;;;;;;;;;23.77;50.86;94934.55;590285;240;65014;-67
2023/03/11 04:29:39;;;;;;;;;;;;;;;23.78;52.18;94946.82;590282;240;63704;-67
2023/03/11 04:32:07;;;;;;;;;;;;;;;23.79;53.70;94943.01;590281;240;67717;-67
2023/03/11 04:34:35;;;;;;;;;;;;;;;23.77;53.00;94945.27;584747;240;69818;-67
2023/03/11 04:37:03;;;;;;;;;;;;;;;23.77;53.58;94942.59;589810;240;62508;-67
2023/03/11 04:39:32;;;;;;;;;;;;;;;23.77;53.10;94947.95;589776;240;67163;-67
2023/03/11 04:42:00;;;;;;;;;;;;;;;23.76;52.38;94954.42;589816;240;65197;-67
2023/03/11 04:44:28;;;;;;;;;;;;;;;23.76;53.76;94954.42;589826;240;66015;-67
2023/03/11 04:46:56;;;;;;;;;;;;;;;23.75;51.51;94958.23;589791;240;67927;-67
2023/03/11 04:49:25;;;;;;;;;;;;;;;23.75;54.32;94950.95;589837;240;46587;-67
2023/03/11 04:51:53;;;;;;;;;;;;;;;23.74;50.03;94954.00;589776;240;65691;-68
2023/03/11 04:54:21;;;;;;;;;;;;;;;23.75;53.82;94952.87;589811;240;65047;-68
2023/03/11 04:56:49;;;;;;;;;;;;;;;23.74;51.54;94959.36;589831;240;66058;-67
2023/03/11 04:59:17;;;;;;;;;;;;;;;23.74;53.19;94959.36;589752;240;65887;-67
2023/03/11 05:01:44;;;;;;;;;;;;;;;23.71;48.55;94955.45;589807;240;67061;-67
2023/03/11 05:04:12;;;;;;;;;;;;;;;23.74;53.20;94948.63;589784;240;64557;-67
2023/03/11 05:06:41;;;;;;;;;;;;;;;23.72;53.08;94948.95;589778;240;65810;-67
2023/03/11 05:09:12;;;;;;;;;;;;;;;23.73;52.95;94949.73;589802;240;64800;-67
2023/03/11 05:11:41;;;;;;;;;;;;;;;23.72;52.09;94961.59;589846;240;47025;-67
2023/03/11 05:14:09;;;;;;;;;;;;;;;23.72;52.96;94964.27;589822;240;64927;-67
2023/03/11 05:16:39;;;;;;;;;;;;;;;23.70;53.64;94962.66;589786;240;65514;-67
2023/03/11 05:21:55;;;;;;;;;;;;;;;23.70;53.23;94964.56;589829;240;44904;-67
2023/03/11 05:24:25;;;;;;;;;;;;;;;23.69;54.36;94961.11;584278;240;48741;-67
2023/03/11 05:26:53;;;;;;;;;;;;;;;23.69;54.03;94958.42;589829;240;67717;-67
2023/03/11 05:29:24;;;;;;;;;;;;;;;23.68;54.40;94966.80;589728;240;45126;-67
2023/03/11 05:31:54;;;;;;;;;;;;;;;23.67;53.55;94974.06;589773;240;67842;-67
2023/03/11 05:34:22;;;;;;;;;;;;;;;23.68;54.08;94972.16;589972;240;66984;-67
2023/03/11 05:36:50;;;;;;;;;;;;;;;23.67;53.14;94992.06;590272;240;62519;-67
2023/03/11 05:39:21;;;;;;;;;;;;;;;23.67;53.60;94992.06;590301;240;47677;-67
2023/03/11 05:41:51;;;;;;;;;;;;;;;23.65;50.74;94979.00;590282;240;67660;-67
2023/03/11 05:44:19;;;;;;;;;;;;;;;23.66;53.95;94985.92;590264;240;65802;-67
2023/03/11 05:46:46;;;;;;;;;;;;;;;23.65;52.28;94989.73;590264;240;67204;-67
2023/03/11 05:49:14;;;;;;;;;;;;;;;23.65;53.21;94976.33;590251;240;65025;-67
2023/03/11 05:51:42;;;;;;;;;;;;;;;23.64;52.03;94982.78;590330;240;63715;-67
2023/03/11 05:54:13;;;;;;;;;;;;;;;23.64;51.99;94979.33;590299;240;66069;-67
2023/03/11 05:56:39;;;;;;;;;;;;;;;23.64;52.03;94990.05;590187;240;66264;-67
2023/03/11 05:59:07;;;;;;;;;;;;;;;23.63;53.62;94989.28;590273;240;65783;-67
2023/03/11 06:01:35;;;;;;;;;;;;;;;23.64;56.77;94990.83;590278;240;67228;-67
2023/03/11 06:04:05;;;;;;;;;;;;;;;23.63;54.29;94994.64;590275;240;64572;-60
2023/03/11 06:06:33;;;;;;;;;;;;;;;23.63;54.80;94991.96;585166;240;66704;-60
2023/03/11 06:09:02;;;;;;;;;;;;;;;23.61;54.27;94983.46;590271;240;67346;-60
2023/03/11 06:11:30;;;;;;;;;;;;;;;23.60;53.05;94992.64;590243;240;67339;-60
2023/03/11 06:13:58;;;;;;;;;;;;;;;23.60;53.81;95000.68;590289;240;64902;-60
2023/03/11 06:16:26;;;;;;;;;;;;;;;23.61;53.05;95006.81;590247;240;64599;-60
2023/03/11 06:18:55;;;;;;;;;;;;;;;23.60;54.04;94998.00;590325;240;47870;-60
2023/03/11 06:21:25;;;;;;;;;;;;;;;23.59;53.79;95007.14;590283;240;65012;-60
2023/03/11 06:23:53;;;;;;;;;;;;;;;23.60;55.08;94999.88;590268;240;67187;-60
2023/03/11 06:26:22;;;;;;;;;;;;;;;23.58;51.22;95010.17;590254;240;65218;-60
2023/03/11 06:28:50;;;;;;;;;;;;;;;23.59;53.61;95015.19;590265;240;65860;-67
2023/03/11 06:31:24;;;;;;;;;;;;;;;23.57;51.67;95014.77;590316;240;66745;-67
2023/03/11 06:33:52;;;;;;;;;;;;;;;23.58;52.22;95010.17;589381;240;64804;-67
2023/03/11 06:36:20;;;;;;;;;;;;;;;23.58;53.51;95018.22;586029;242;65112;-67
2023/03/11 06:38:48;;;;;;;;;;;;;;;23.57;54.99;95017.44;586024;242;67300;-67
2023/03/11 06:41:16;;;;;;;;;;;;;;;23.56;54.75;95018.55;586013;242;65054;-67
2023/03/11 06:43:44;;;;;;;;;;;;;;;23.54;51.48;95023.45;586041;242;65705;-67
2023/03/11 06:46:14;;;;;;;;;;;;;;;23.55;52.21;95027.72;586073;242;67912;-67
2023/03/11 06:48:44;;;;;;;;;;;;;;;23.55;54.14;95027.72;585918;241;44285;-68
2023/03/11 06:51:13;;;;;;;;;;;;;;;23.56;53.92;95028.48;586025;242;64860;-68
2023/03/11 06:53:41;;;;;;;;;;;;;;;23.54;53.81;95023.45;586050;242;65093;-68
2023/03/11 06:56:10;;;;;;;;;;;;;;;23.54;54.68;95031.49;585906;242;67255;-68
2023/03/11 06:58:46;;;;;;;;;;;;;;;23.54;50.77;95030.72;586048;242;43021;-68
2023/03/11 07:01:14;;;;;;;;;;;;;;;23.55;54.20;95019.67;585954;242;65051;-68
2023/03/11 07:03:43;;;;;;;;;;;;;;;23.54;52.77;95020.77;586020;242;67113;-68
2023/03/11 07:06:12;;;;;;;;;;;;;;;23.54;51.46;95028.03;586018;242;63019;-61
2023/03/11 07:08:39;;;;;;;;;;;;;;;23.54;52.89;95025.36;586030;242;64861;-68
2023/03/11 07:11:09;;;;;;;;;;;;;;;23.54;52.32;95018.09;585997;242;67486;-68
2023/03/11 07:13:37;;;;;;;;;;;;;;;23.54;51.22;95017.31;586072;242;62948;-68
2023/03/11 07:16:06;;;;;;;;;;;;;;;23.54;53.37;95020.77;586043;242;64545;-68
2023/03/11 07:18:35;;;;;;;;;;;;;;;23.54;53.62;95014.63;586040;242;66825;-68
2023/03/11 07:21:03;;;;;;;;;;;;;;;23.53;51.40;95008.49;586001;242;62983;-68
2023/03/11 07:23:31;;;;;;;;;;;;;;;23.54;52.78;95010.05;586030;242;67041;-68
2023/03/11 07:25:58;;;;;;;;;;;;;;;23.53;51.44;95005.81;586000;242;67471;-67
2023/03/11 07:28:27;;;;;;;;;;;;;;;23.55;55.25;95013.53;586040;242;62758;-68
2023/03/11 07:30:55;;;;;;;;;;;;;;;23.55;55.08;95011.63;586030;242;67282;-68
2023/03/11 07:33:23;;;;;;;;;;;;;;;23.54;54.46;95020.77;585952;241;67024;-67
2023/03/11 07:35:51;;;;;;;;;;;;;;;23.53;50.71;95016.53;586035;242;63078;-68
2023/03/11 07:38:18;;;;;;;;;;;;;;;23.54;53.21;95012.72;586061;242;65261;-68
2023/03/11 07:40:46;;;;;;;;;;;;;;;23.53;53.25;95008.49;586033;242;64908;-68
2023/03/11 07:43:14;;;;;;;;;;;;;;;23.53;53.83;95007.72;586052;242;62947;-69
2023/03/11 07:45:41;;;;;;;;;;;;;;;23.52;52.61;94993.53;586018;242;64762;-68
2023/03/11 07:48:09;;;;;;;;;;;;;;;23.53;55.08;94995.09;585993;242;65126;-68
2023/03/11 07:50:36;;;;;;;;;;;;;;;23.52;53.26;94993.53;586070;242;62920;-68
2023/03/11 07:53:04;;;;;;;;;;;;;;;23.52;53.66;94993.53;586083;242;66226;-68
2023/03/11 07:55:31;;;;;;;;;;;;;;;23.53;53.92;94988.95;586014;242;67075;-69
2023/03/11 07:57:58;;;;;;;;;;;;;;;23.52;52.81;94993.53;586005;242;65072;-68
2023/03/11 08:00:26;;;;;;;;;;;;;;;23.52;53.20;94990.05;586028;242;67177;-69
2023/03/11 08:02:54;;;;;;;;;;;;;;;23.52;52.51;94984.69;586007;242;64694;-68
2023/03/11 08:05:21;;;;;;;;;;;;;;;23.51;54.72;94989.27;586099;242;63844;-68
2023/03/11 08:07:48;;;;;;;;;;;;;;;23.52;54.17;94984.69;586039;242;66818;-68
2023/03/11 08:10:16;;;;;;;;;;;;;;;23.51;52.02;94985.81;586040;242;66677;-68
2023/03/11 08:12:44;;;;;;;;;;;;;;;23.50;54.08;94979.67;586065;242;65064;-68
2023/03/11 08:15:11;;;;;;;;;;;;;;;23.51;52.14;94983.13;585994;242;66962;-69
2023/03/11 08:17:39;;;;;;;;;;;;;;;23.50;52.84;94968.95;586078;242;64755;-68
2023/03/11 08:20:07;;;;;;;;;;;;;;;23.51;54.18;94975.09;586054;242;63132;-69
2023/03/11 08:22:35;;;;;;;;;;;;;;;23.49;53.75;94965.50;586046;242;64816;-69
2023/03/11 08:25:02;;;;;;;;;;;;;;;23.50;53.64;94966.27;586022;242;66845;-68
2023/03/11 08:27:30;;;;;;;;;;;;;;;23.49;52.79;94951.31;586024;242;64905;-69
2023/03/11 08:29:58;;;;;;;;;;;;;;;23.49;52.20;94951.31;586043;242;66931;-68
2023/03/11 08:32:25;;;;;;;;;;;;;;;23.49;54.84;94946.73;586036;242;64766;-68
2023/03/11 08:34:53;;;;;;;;;;;;;;;23.49;53.24;94943.27;585992;241;65214;-68
2023/03/11 08:37:20;;;;;;;;;;;;;;;23.49;54.45;94944.05;586019;242;67268;-69
2023/03/11 08:39:48;;;;;;;;;;;;;;;23.49;52.02;94945.95;585997;242;67388;-68
2023/03/11 08:42:16;;;;;;;;;;;;;;;23.49;54.86;94935.23;586038;242;65024;-68
2023/03/11 08:44:44;;;;;;;;;;;;;;;23.48;53.23;94931.74;586057;242;67246;-69
2023/03/11 08:47:12;;;;;;;;;;;;;;;23.48;53.89;94936.33;586031;242;67020;-68
2023/03/11 08:49:39;;;;;;;;;;;;;;;23.47;52.50;94934.78;586048;242;62994;-68
2023/03/11 08:52:07;;;;;;;;;;;;;;;23.48;55.36;94933.65;586062;242;67419;-68
2023/03/11 08:54:34;;;;;;;;;;;;;;;23.47;53.04;94932.09;586074;242;67249;-68
2023/03/11 08:57:03;;;;;;;;;;;;;;;23.46;51.87;94927.84;586096;242;65081;-68
2023/03/11 08:59:31;;;;;;;;;;;;;;;23.46;51.70;94927.84;586056;242;64422;-68
2023/03/11 09:01:58;;;;;;;;;;;;;;;23.47;51.42;94924.05;586040;242;64912;-68
2023/03/11 09:04:26;;;;;;;;;;;;;;;23.47;53.68;94926.73;586018;242;63030;-69
2023/03/11 09:06:53;;;;;;;;;;;;;;;23.45;51.04;94920.92;586067;242;65283;-68
2023/03/11 09:09:21;;;;;;;;;;;;;;;23.45;55.56;94915.56;586062;242;64950;-68
2023/03/11 09:11:48;;;;;;;;;;;;;;;23.45;54.01;94918.24;586035;242;62669;-68
2023/03/11 09:14:16;;;;;;;;;;;;;;;23.44;52.57;94912.11;586054;242;64959;-68
2023/03/11 09:16:44;;;;;;;;;;;;;;;23.44;53.39;94917.47;586052;242;67183;-68
2023/03/11 09:19:12;;;;;;;;;;;;;;;23.44;53.47;94909.42;586034;242;63826;-68
2023/03/11 09:21:39;;;;;;;;;;;;;;;23.43;51.68;94910.52;586093;242;67270;-68
2023/03/11 09:24:07;;;;;;;;;;;;;;;23.44;53.00;94900.61;586040;242;67114;-68
2023/03/11 09:26:35;;;;;;;;;;;;;;;23.44;52.90;94895.25;586018;242;64980;-68
2023/03/11 09:29:03;;;;;;;;;;;;;;;23.43;52.89;94891.77;586008;242;67311;-68
2023/03/11 09:31:30;;;;;;;;;;;;;;;23.43;53.42;94890.98;586043;242;66686;-69
2023/03/11 09:33:58;;;;;;;;;;;;;;;23.43;53.28;94893.66;586087;241;64875;-68
2023/03/11 09:36:25;;;;;;;;;;;;;;;23.42;54.69;94890.20;585997;242;67241;-68
2023/03/11 09:38:52;;;;;;;;;;;;;;;23.42;55.56;94898.25;586044;242;67776;-68
2023/03/11 09:41:22;;;;;;;;;;;;;;;23.41;51.99;94891.34;586037;242;62887;-68
2023/03/11 09:44:08;;;;;;;;;;;;;;;23.43;54.99;94904.39;585858;242;67309;-68
2023/03/11 09:46:37;;;;;;;;;;;;;;;23.41;53.73;94896.70;585969;242;66829;-69
2023/03/11 09:49:09;;;;;;;;;;;;;;;23.41;56.29;94899.38;585948;242;64701;-68
2023/03/11 09:51:38;;;;;;;;;;;;;;;23.40;54.35;94900.48;585197;242;64946;-69
2023/03/11 09:54:07;;;;;;;;;;;;;;;23.40;54.47;94899.70;585189;242;65279;-68
2023/03/11 09:56:34;;;;;;;;;;;;;;;23.39;54.66;94906.20;585544;242;62975;-68
2023/03/11 09:59:03;;;;;;;;;;;;;;;23.40;54.69;94905.06;585915;242;67106;-68
2023/03/11 10:01:36;;;;;;;;;;;;;;;23.38;52.40;94897.38;586062;242;64480;-68
2023/03/11 10:04:14;;;;;;;;;;;;;;;23.38;53.18;94894.70;585772;242;65089;-68
2023/03/11 10:06:43;;;;;;;;;;;;;;;23.38;53.69;94883.98;586055;242;65052;-68
2023/03/11 10:09:18;;;;;;;;;;;;;;;23.38;51.88;94891.21;586017;242;66794;-68
2023/03/11 10:11:50;;;;;;;;;;;;;;;23.39;56.74;94896.25;586030;242;65202;-68
2023/03/11 10:14:22;;;;;;;;;;;;;;;23.39;56.24;94888.20;585884;242;66983;-68
2023/03/11 10:16:54;;;;;;;;;;;;;;;23.37;55.53;94887.76;586026;242;67087;-68
2023/03/11 10:19:23;;;;;;;;;;;;;;;23.37;56.04;94886.98;585895;242;65059;-68
2023/03/11 10:21:55;;;;;;;;;;;;;;;23.37;53.15;94878.94;585717;242;67535;-68
2023/03/11 10:24:24;;;;;;;;;;;;;;;23.37;53.00;94873.58;585796;242;64957;-68
2023/03/11 10:26:53;;;;;;;;;;;;;;;23.36;53.87;94869.34;586024;242;62780;-68
2023/03/11 10:29:25;;;;;;;;;;;;;;;23.36;53.90;94872.03;586033;242;64925;-68
2023/03/11 10:31:54;;;;;;;;;;;;;;;23.35;52.99;94865.86;586041;242;67396;-68
2023/03/11 10:34:24;;;;;;;;;;;;;;;23.36;53.75;94866.67;587842;240;63053;-68
2023/03/11 10:37:02;;;;;;;;;;;;;;;23.36;53.09;94867.44;590262;240;64932;-68
2023/03/11 10:39:33;;;;;;;;;;;;;;;23.36;53.67;94874.70;590269;240;65925;-68
2023/03/11 10:42:01;;;;;;;;;;;;;;;23.35;52.59;94873.91;590260;240;64993;-69
2023/03/11 10:44:36;;;;;;;;;;;;;;;23.34;51.15;94875.03;590243;240;66972;-69
2023/03/11 10:47:03;;;;;;;;;;;;;;;23.35;54.31;94886.53;590253;240;64818;-69
2023/03/11 10:49:31;;;;;;;;;;;;;;;23.34;53.49;94888.44;590294;240;62997;-69
2023/03/11 10:51:58;;;;;;;;;;;;;;;23.35;56.05;94886.53;590228;240;65052;-69
2023/03/11 10:54:29;;;;;;;;;;;;;;;23.35;53.41;94889.20;590175;240;64421;-69
2023/03/11 10:56:58;;;;;;;;;;;;;;;23.35;53.94;94881.17;590217;240;65009;-69
2023/03/11 10:59:28;;;;;;;;;;;;;;;23.35;52.73;94875.81;590155;240;67291;-69
2023/03/11 11:02:03;;;;;;;;;;;;;;;23.35;54.71;94870.45;590168;240;68027;-68
2023/03/11 11:04:34;;;;;;;;;;;;;;;23.34;54.24;94868.90;589278;240;65094;-68
2023/03/11 11:07:20;;;;;;;;;;;;;;;23.33;52.73;94867.34;589825;240;46954;-69
2023/03/11 11:09:49;;;;;;;;;;;;;;;23.33;57.58;94864.67;590055;240;67480;-67
2023/03/11 11:12:18;;;;;;;;;;;;;;;23.32;53.98;94861.18;589414;240;65093;-67
2023/03/11 11:14:50;;;;;;;;;;;;;;;23.32;54.47;94850.46;589964;240;67282;-67
2023/03/11 11:17:22;;;;;;;;;;;;;;;23.32;53.95;94849.69;589386;240;66828;-68
2023/03/11 11:19:50;;;;;;;;;;;;;;;23.32;53.46;94839.73;590172;240;63108;-68
2023/03/11 11:22:19;;;;;;;;;;;;;;;23.31;52.97;94848.91;589955;240;64945;-68
2023/03/11 11:24:50;;;;;;;;;;;;;;;23.30;55.51;94847.36;590110;240;67080;-67
2023/03/11 11:27:25;;;;;;;;;;;;;;;23.30;53.90;94850.04;590281;240;63032;-68
2023/03/11 11:30:09;;;;;;;;;;;;;;;23.31;54.61;94866.89;589451;240;64744;-68
2023/03/11 11:32:37;;;;;;;;;;;;;;;23.30;52.27;94860.77;590221;240;64881;-68
2023/03/11 11:35:06;;;;;;;;;;;;;;;23.30;52.58;94867.99;590159;240;63025;-68
2023/03/11 11:37:35;;;;;;;;;;;;;;;23.29;53.29;94869.90;590267;240;67556;-67
2023/03/11 11:40:09;;;;;;;;;;;;;;;23.29;53.94;94863.77;590247;240;66894;-67
2023/03/11 11:42:38;;;;;;;;;;;;;;;23.28;52.73;94860.31;589029;240;62529;-68
2023/03/11 11:45:16;;;;;;;;;;;;;;;23.27;53.37;94856.05;590270;240;67237;-67
2023/03/11 11:47:45;;;;;;;;;;;;;;;23.28;53.32;94856.86;590268;240;68138;-67
2023/03/11 11:50:20;;;;;;;;;;;;;;;23.28;54.37;94848.81;590259;240;63748;-67
2023/03/11 11:52:49;;;;;;;;;;;;;;;23.27;53.21;94853.37;588157;240;67309;-67
2023/03/11 11:55:27;;;;;;;;;;;;;;;23.27;54.87;94850.69;590211;240;66908;-67
2023/03/11 11:57:54;;;;;;;;;;;;;;;23.26;54.26;94849.14;590234;240;65051;-67
2023/03/11 12:00:26;;;;;;;;;;;;;;;23.25;52.97;94843.00;590254;240;65952;-67
2023/03/11 12:03:03;;;;;;;;;;;;;;;23.26;56.37;94849.91;590280;240;65047;-67
2023/03/11 12:05:32;;;;;;;;;;;;;;;23.26;55.99;94849.14;589898;240;65057;-67
2023/03/11 12:08:01;;;;;;;;;;;;;;;23.25;55.33;94852.95;590244;240;65011;-67
2023/03/11 12:10:30;;;;;;;;;;;;;;;23.24;51.66;94857.53;589937;240;67178;-66
2023/03/11 12:13:02;;;;;;;;;;;;;;;23.28;46.10;94859.53;590202;240;64918;-66
2023/03/11 12:15:33;;;;;;;;;;;;;;;23.29;51.55;94861.08;589634;240;67353;-66
2023/03/11 12:18:02;;;;;;;;;;;;;;;23.27;51.60;94858.73;590196;240;64381;-66
2023/03/11 12:20:34;;;;;;;;;;;;;;;23.26;55.46;94851.82;590212;240;63007;-66
2023/03/11 12:23:21;;;;;;;;;;;;;;;23.25;53.36;94840.33;589950;240;66940;-66
2023/03/11 12:25:55;;;;;;;;;;;;;;;23.24;54.88;94841.45;590184;240;71555;-66
2023/03/11 12:28:30;;;;;;;;;;;;;;;23.24;54.30;94841.45;590110;240;62993;-66
2023/03/11 12:31:02;;;;;;;;;;;;;;;23.23;52.38;94834.52;590134;240;67076;-66
2023/03/11 12:33:31;;;;;;;;;;;;;;;23.23;54.46;94829.16;590001;238;64744;-65
2023/03/11 12:35:59;;;;;;;;;;;;;;;23.23;54.37;94831.83;586085;242;62864;-66
2023/03/11 12:38:30;;;;;;;;;;;;;;;23.22;54.11;94829.51;585889;242;64681;-66
2023/03/11 12:40:58;;;;;;;;;;;;;;;23.23;53.52;94833.73;586037;242;68126;-66
2023/03/11 12:43:33;;;;;;;;;;;;;;;23.22;53.37;94827.61;586079;242;62799;-66
2023/03/11 12:46:05;;;;;;;;;;;;;;;23.23;54.72;94839.88;586041;242;67095;-67
2023/03/11 12:48:36;;;;;;;;;;;;;;;23.21;52.60;94850.14;586152;242;46814;-66
2023/03/11 12:51:05;;;;;;;;;;;;;;;23.22;55.17;94849.04;586026;242;62948;-66
2023/03/11 12:53:43;;;;;;;;;;;;;;;23.21;52.64;94847.46;586025;242;69704;-66
2023/03/11 12:56:24;;;;;;;;;;;;;;;23.21;51.48;94852.82;586051;242;64904;-66
2023/03/11 12:58:55;;;;;;;;;;;;;;;23.21;52.66;94858.18;585832;242;65060;-66
2023/03/11 13:01:43;;;;;;;;;;;;;;;23.22;54.63;94849.04;585903;242;65003;-66
2023/03/11 13:04:21;;;;;;;;;;;;;;;23.21;52.08;94852.05;586068;242;67056;-66